createdAt,value
2023-01-07T00:01:30.785Z,52.81
2023-01-07T00:03:59.564Z,52.24
2023-01-07T00:06:33.195Z,52.30
2023-01-07T00:09:00.359Z,52.39
2023-01-07T00:11:30.892Z,52.30
2023-01-07T00:13:59.189Z,52.40
2023-01-07T00:16:28.445Z,52.47
2023-01-07T00:18:56.867Z,52.68
2023-01-07T00:21:24.546Z,52.79
2023-01-07T00:23:55.816Z,52.28
2023-01-07T00:26:24.380Z,51.99
2023-01-07T00:28:51.620Z,52.64
2023-01-07T00:31:31.214Z,51.91
2023-01-07T00:33:58.247Z,51.96
2023-01-07T00:36:34.898Z,51.94
2023-01-07T00:39:22.960Z,52.08
2023-01-07T00:42:08.525Z,52.24
2023-01-07T00:44:35.224Z,52.29
2023-01-07T00:47:01.793Z,51.75
2023-01-07T00:49:28.394Z,51.81
2023-01-07T00:51:54.857Z,51.72
2023-01-07T00:54:21.257Z,52.18
2023-01-07T00:56:48.059Z,52.07
2023-01-07T00:59:15.676Z,51.76
2023-01-07T01:01:42.336Z,51.63
2023-01-07T01:04:08.687Z,51.94
2023-01-07T01:06:35.076Z,51.62
2023-01-07T01:09:01.644Z,51.90
2023-01-07T01:11:27.992Z,51.62
2023-01-07T01:13:54.390Z,52.07
2023-01-07T01:16:21.001Z,51.73
2023-01-07T01:18:47.830Z,51.85
2023-01-07T01:21:16.323Z,51.83
2023-01-07T01:23:43.123Z,51.97
2023-01-07T01:26:12.686Z,51.62
2023-01-07T01:28:39.347Z,51.65
2023-01-07T01:31:08.412Z,51.49
2023-01-07T01:33:35.105Z,51.38
2023-01-07T01:36:06.574Z,51.69
2023-01-07T01:38:33.112Z,51.29
2023-01-07T01:40:59.853Z,51.39
2023-01-07T01:43:34.280Z,51.43
2023-01-07T01:46:11.145Z,51.28
2023-01-07T01:48:41.802Z,51.63
2023-01-07T01:51:10.332Z,51.60
2023-01-07T01:53:37.007Z,51.24
2023-01-07T01:56:10.998Z,51.22
2023-01-07T01:58:43.201Z,51.16
2023-01-07T02:01:09.966Z,51.25
2023-01-07T02:03:38.043Z,51.27
2023-01-07T02:06:05.540Z,51.40
2023-01-07T02:08:32.407Z,51.43
2023-01-07T02:11:18.718Z,50.96
2023-01-07T02:14:09.210Z,50.97
2023-01-07T02:17:14.821Z,51.10
2023-01-07T02:19:59.316Z,50.92
2023-01-07T02:22:41.461Z,51.32
2023-01-07T02:25:29.292Z,51.23
2023-01-07T02:28:24.987Z,50.86
2023-01-07T02:31:06.741Z,51.02
2023-01-07T02:33:38.160Z,50.83
2023-01-07T02:36:49.960Z,51.34
2023-01-07T02:39:58.008Z,51.11
2023-01-07T02:42:46.453Z,51.27
2023-01-07T02:45:19.723Z,50.72
2023-01-07T02:48:02.543Z,51.05
2023-01-07T02:50:28.968Z,50.72
2023-01-07T02:52:55.656Z,51.02
2023-01-07T02:55:37.619Z,51.05
2023-01-07T02:58:48.599Z,51.48
2023-01-07T03:01:29.143Z,51.12
2023-01-07T03:04:13.996Z,51.08
2023-01-07T03:06:54.767Z,50.89
2023-01-07T03:09:30.525Z,51.47
2023-01-07T03:12:29.383Z,51.28
2023-01-07T03:15:11.446Z,51.45
2023-01-07T03:18:06.995Z,51.30
2023-01-07T03:20:36.819Z,50.98
2023-01-07T03:23:07.903Z,51.07
2023-01-07T03:25:40.382Z,51.16
2023-01-07T03:28:09.732Z,50.84
2023-01-07T03:30:38.526Z,50.74
2023-01-07T03:33:12.024Z,50.79
2023-01-07T03:35:42.869Z,50.60
2023-01-07T03:38:10.344Z,50.87
2023-01-07T03:40:37.421Z,51.10
2023-01-07T03:43:04.442Z,50.85
2023-01-07T03:45:31.053Z,50.75
2023-01-07T03:47:58.189Z,50.97
2023-01-07T03:50:24.627Z,51.08
2023-01-07T03:52:52.995Z,50.98
2023-01-07T03:55:19.925Z,50.83
2023-01-07T03:57:46.459Z,51.04
2023-01-07T04:00:14.090Z,50.67
2023-01-07T04:02:41.029Z,51.22
2023-01-07T04:05:07.913Z,50.82
2023-01-07T04:07:34.265Z,50.76
2023-01-07T04:10:01.040Z,50.72
2023-01-07T04:12:27.454Z,50.84
2023-01-07T04:14:57.307Z,50.63
2023-01-07T04:17:25.854Z,50.68
2023-01-07T04:19:52.423Z,51.05
2023-01-07T04:22:18.963Z,50.64
2023-01-07T04:24:45.287Z,51.03
2023-01-07T04:27:11.927Z,50.42
2023-01-07T04:29:38.485Z,50.72
2023-01-07T04:32:05.338Z,50.60
2023-01-07T04:34:31.844Z,51.04
2023-01-07T04:36:58.245Z,50.73
2023-01-07T04:39:24.623Z,50.77
2023-01-07T04:41:51.029Z,51.11
2023-01-07T04:44:17.738Z,50.98
2023-01-07T04:46:44.946Z,50.94
2023-01-07T04:49:11.327Z,50.62
2023-01-07T04:51:37.874Z,50.90
2023-01-07T04:54:04.297Z,50.84
2023-01-07T04:56:30.702Z,50.66
2023-01-07T04:58:57.206Z,50.57
2023-01-07T05:01:24.616Z,50.61
2023-01-07T05:03:51.076Z,50.88
2023-01-07T05:06:19.030Z,50.72
2023-01-07T05:08:45.447Z,50.82
2023-01-07T05:11:12.005Z,50.88
2023-01-07T05:13:38.353Z,50.77
2023-01-07T05:16:05.133Z,50.66
2023-01-07T05:18:31.947Z,50.40
2023-01-07T05:20:58.307Z,50.29
2023-01-07T05:23:24.732Z,50.31
2023-01-07T05:25:51.380Z,50.38
2023-01-07T05:28:17.779Z,50.39
2023-01-07T05:30:44.445Z,50.50
2023-01-07T05:33:10.736Z,50.22
2023-01-07T05:35:37.341Z,50.49
2023-01-07T05:38:03.911Z,50.08
2023-01-07T05:40:30.310Z,50.47
2023-01-07T05:42:56.931Z,49.84
2023-01-07T05:45:23.496Z,50.28
2023-01-07T05:47:49.900Z,50.20
2023-01-07T05:50:16.679Z,49.98
2023-01-07T05:52:43.003Z,50.09
2023-01-07T05:55:09.713Z,50.02
2023-01-07T05:57:36.068Z,50.02
2023-01-07T06:00:02.631Z,50.08
2023-01-07T06:02:28.946Z,49.87
2023-01-07T06:04:55.484Z,49.59
2023-01-07T06:07:21.934Z,49.94
2023-01-07T06:09:48.453Z,49.35
2023-01-07T06:12:15.000Z,49.98
2023-01-07T06:14:41.408Z,49.60
2023-01-07T06:17:07.968Z,49.82
2023-01-07T06:19:34.325Z,49.71
2023-01-07T06:22:01.635Z,49.37
2023-01-07T06:24:28.168Z,49.58
2023-01-07T06:26:54.548Z,49.73
2023-01-07T06:29:20.987Z,49.72
2023-01-07T06:31:47.330Z,49.39
2023-01-07T06:34:13.673Z,49.62
2023-01-07T06:36:40.186Z,49.67
2023-01-07T06:39:07.781Z,49.58
2023-01-07T06:41:34.466Z,49.54
2023-01-07T06:44:00.861Z,49.71
2023-01-07T06:46:27.577Z,49.48
2023-01-07T06:48:54.311Z,49.73
2023-01-07T06:51:20.913Z,49.60
2023-01-07T06:53:47.321Z,49.49
2023-01-07T06:56:13.714Z,49.80
2023-01-07T06:58:40.032Z,49.54
2023-01-07T07:01:07.950Z,49.83
2023-01-07T07:03:34.517Z,49.50
2023-01-07T07:06:01.979Z,49.81
2023-01-07T07:08:28.345Z,49.64
2023-01-07T07:10:55.248Z,49.65
2023-01-07T07:13:21.954Z,49.96
2023-01-07T07:15:49.878Z,49.93
2023-01-07T07:18:22.097Z,50.20
2023-01-07T07:20:48.616Z,49.94
2023-01-07T07:23:15.187Z,50.14
2023-01-07T07:25:43.748Z,50.20
2023-01-07T07:28:10.204Z,50.12
2023-01-07T07:30:45.735Z,50.24
2023-01-07T07:33:14.831Z,50.14
2023-01-07T07:35:41.379Z,49.95
2023-01-07T07:38:07.795Z,50.18
2023-01-07T07:40:34.370Z,50.22
2023-01-07T07:43:12.022Z,49.97
2023-01-07T07:45:39.352Z,49.94
2023-01-07T07:48:10.259Z,49.97
2023-01-07T07:50:37.122Z,49.86
2023-01-07T07:53:04.050Z,49.73
2023-01-07T07:55:32.183Z,49.99
2023-01-07T07:57:58.753Z,49.67
2023-01-07T08:00:25.357Z,49.90
2023-01-07T08:02:52.775Z,49.82
2023-01-07T08:05:19.419Z,49.78
2023-01-07T08:07:45.834Z,49.43
2023-01-07T08:10:12.341Z,49.29
2023-01-07T08:12:39.467Z,49.29
2023-01-07T08:15:08.046Z,49.21
2023-01-07T08:17:36.467Z,49.64
2023-01-07T08:20:06.357Z,49.61
2023-01-07T08:22:33.328Z,49.76
2023-01-07T08:25:00.050Z,49.46
2023-01-07T08:27:31.536Z,49.26
2023-01-07T08:29:57.940Z,49.73
2023-01-07T08:32:24.242Z,49.35
2023-01-07T08:34:50.586Z,49.59
2023-01-07T08:37:17.181Z,49.19
2023-01-07T08:39:43.581Z,49.27
2023-01-07T08:42:09.868Z,49.04
2023-01-07T08:44:36.489Z,49.16
2023-01-07T08:47:02.864Z,49.22
2023-01-07T08:49:29.155Z,49.20
2023-01-07T08:51:55.543Z,49.40
2023-01-07T08:54:21.942Z,49.24
2023-01-07T08:56:48.388Z,49.03
2023-01-07T08:59:14.659Z,49.21
2023-01-07T09:01:41.457Z,49.24
2023-01-07T09:04:07.911Z,49.01
2023-01-07T09:06:34.340Z,49.33
2023-01-07T09:09:02.677Z,49.26
2023-01-07T09:11:28.954Z,49.30
2023-01-07T09:13:55.238Z,49.21
2023-01-07T09:16:21.554Z,49.20
2023-01-07T09:18:47.897Z,49.35
2023-01-07T09:21:14.224Z,49.13
2023-01-07T09:23:40.667Z,48.89
2023-01-07T09:26:09.991Z,48.87
2023-01-07T09:28:36.289Z,48.85
2023-01-07T09:31:05.605Z,49.13
2023-01-07T09:33:33.275Z,49.18
2023-01-07T09:36:00.100Z,49.23
2023-01-07T09:38:26.511Z,49.00
2023-01-07T09:40:53.306Z,49.09
2023-01-07T09:44:00.919Z,48.92
2023-01-07T09:46:23.373Z,49.11
2023-01-07T09:48:54.257Z,48.83
2023-01-07T09:51:23.273Z,48.98
2023-01-07T09:53:51.727Z,48.86
2023-01-07T09:56:21.049Z,48.78
2023-01-07T09:58:48.603Z,48.90
2023-01-07T10:01:15.285Z,48.76
2023-01-07T10:03:56.722Z,48.76
2023-01-07T10:06:43.117Z,48.41
2023-01-07T10:09:38.356Z,48.73
2023-01-07T10:12:10.800Z,48.44
2023-01-07T10:14:40.226Z,48.40
2023-01-07T10:17:22.175Z,48.12
2023-01-07T10:20:02.940Z,48.43
2023-01-07T10:22:32.246Z,48.57
2023-01-07T10:25:01.468Z,48.42
2023-01-07T10:27:33.851Z,48.30
2023-01-07T10:30:05.021Z,48.52
2023-01-07T10:32:36.457Z,48.35
2023-01-07T10:35:04.375Z,48.18
2023-01-07T10:37:32.383Z,48.10
2023-01-07T10:40:17.837Z,48.32
2023-01-07T10:42:52.864Z,48.52
2023-01-07T10:45:38.026Z,48.44
2023-01-07T10:48:06.766Z,48.59
2023-01-07T10:50:52.845Z,48.04
2023-01-07T10:53:22.370Z,48.12
2023-01-07T10:56:04.564Z,48.21
2023-01-07T10:58:40.567Z,48.39
2023-01-07T11:01:07.710Z,48.14
2023-01-07T11:03:35.297Z,48.18
2023-01-07T11:06:05.960Z,48.08
2023-01-07T11:08:36.724Z,48.02
2023-01-07T11:11:04.957Z,48.02
2023-01-07T11:13:33.870Z,47.95
2023-01-07T11:16:10.245Z,48.02
2023-01-07T11:18:45.972Z,48.02
2023-01-07T11:21:43.544Z,47.80
2023-01-07T11:24:01.700Z,47.95
2023-01-07T11:26:36.866Z,48.17
2023-01-07T11:29:17.203Z,47.68
2023-01-07T11:31:48.124Z,47.75
2023-01-07T11:34:25.196Z,47.49
2023-01-07T11:36:51.793Z,47.38
2023-01-07T11:39:19.867Z,47.23
2023-01-07T11:41:57.270Z,47.27
2023-01-07T11:44:25.433Z,47.18
2023-01-07T11:46:52.625Z,46.84
2023-01-07T11:49:26.493Z,46.83
2023-01-07T11:51:52.994Z,46.81
2023-01-07T11:54:21.117Z,46.82
2023-01-07T11:56:47.513Z,46.37
2023-01-07T11:59:14.305Z,46.47
2023-01-07T12:01:45.076Z,46.31
2023-01-07T12:04:31.652Z,46.29
2023-01-07T12:07:03.445Z,46.13
2023-01-07T12:09:32.935Z,46.28
2023-01-07T12:12:06.325Z,45.90
2023-01-07T12:14:35.921Z,45.25
2023-01-07T12:17:15.477Z,45.21
2023-01-07T12:19:54.087Z,44.87
2023-01-07T12:22:32.621Z,44.61
2023-01-07T12:25:20.909Z,44.67
2023-01-07T12:27:57.542Z,44.79
2023-01-07T12:30:44.076Z,44.86
2023-01-07T12:33:10.507Z,45.05
2023-01-07T12:35:39.175Z,45.33
2023-01-07T12:38:19.325Z,44.90
2023-01-07T12:40:55.185Z,45.06
2023-01-07T12:43:25.899Z,44.94
2023-01-07T12:45:54.234Z,44.91
2023-01-07T12:48:27.228Z,45.03
2023-01-07T12:50:55.477Z,44.83
2023-01-07T12:53:30.916Z,45.14
2023-01-07T12:56:00.170Z,44.31
2023-01-07T12:58:37.314Z,44.38
2023-01-07T13:01:23.202Z,44.03
2023-01-07T13:04:05.937Z,43.99
2023-01-07T13:06:50.319Z,44.19
2023-01-07T13:09:21.181Z,43.46
2023-01-07T13:12:41.855Z,43.69
2023-01-07T13:15:15.108Z,43.84
2023-01-07T13:17:41.581Z,44.05
2023-01-07T13:20:15.735Z,43.43
2023-01-07T13:22:45.763Z,43.97
2023-01-07T13:25:49.784Z,44.37
2023-01-07T13:28:31.283Z,44.03
2023-01-07T13:31:10.122Z,43.71
2023-01-07T13:33:49.299Z,43.85
2023-01-07T13:36:21.855Z,43.67
2023-01-07T13:39:07.991Z,44.01
2023-01-07T13:41:41.474Z,43.28
2023-01-07T13:44:16.573Z,43.04
2023-01-07T13:46:45.692Z,43.25
2023-01-07T13:49:26.462Z,43.22
2023-01-07T13:51:53.388Z,42.88
2023-01-07T13:54:40.745Z,42.99
2023-01-07T13:57:26.760Z,42.85
2023-01-07T13:59:54.305Z,42.86
2023-01-07T14:02:22.151Z,42.81
2023-01-07T14:04:48.508Z,42.84
2023-01-07T14:07:15.106Z,42.80
2023-01-07T14:09:41.890Z,42.75
2023-01-07T14:12:20.012Z,42.66
2023-01-07T14:15:01.618Z,42.80
2023-01-07T14:17:35.144Z,42.85
2023-01-07T14:20:08.622Z,42.97
2023-01-07T14:22:37.399Z,42.86
2023-01-07T14:25:14.794Z,42.71
2023-01-07T14:27:50.602Z,42.85
2023-01-07T14:30:28.521Z,42.79
2023-01-07T14:33:06.031Z,42.99
2023-01-07T14:35:42.919Z,42.70
2023-01-07T14:38:27.934Z,42.76
2023-01-07T14:41:03.356Z,42.98
2023-01-07T14:43:51.579Z,43.25
2023-01-07T14:46:21.044Z,43.17
2023-01-07T14:49:06.323Z,43.07
2023-01-07T14:51:44.885Z,43.27
2023-01-07T14:54:30.132Z,43.09
2023-01-07T14:56:58.985Z,43.11
2023-01-07T14:59:40.939Z,43.55
2023-01-07T15:02:33.870Z,43.24
2023-01-07T15:05:07.593Z,43.46
2023-01-07T15:07:36.551Z,43.29
2023-01-07T15:10:42.573Z,42.96
2023-01-07T15:13:32.386Z,43.21
2023-01-07T15:16:03.545Z,43.34
2023-01-07T15:18:34.326Z,42.92
2023-01-07T15:21:09.407Z,43.45
2023-01-07T15:23:44.834Z,43.48
2023-01-07T15:26:15.798Z,43.26
2023-01-07T15:28:55.754Z,43.03
2023-01-07T15:31:26.803Z,43.35
2023-01-07T15:34:04.943Z,43.10
2023-01-07T15:36:31.823Z,43.27
2023-01-07T15:38:59.768Z,43.10
2023-01-07T15:41:28.368Z,43.45
2023-01-07T15:43:56.018Z,43.10
2023-01-07T15:46:25.547Z,43.09
2023-01-07T15:49:10.479Z,42.86
2023-01-07T15:51:40.883Z,43.05
2023-01-07T15:54:21.292Z,43.42
2023-01-07T15:56:50.106Z,43.22
2023-01-07T15:59:21.033Z,43.56
2023-01-07T16:01:50.634Z,43.30
2023-01-07T16:04:29.189Z,43.42
2023-01-07T16:06:57.003Z,43.30
2023-01-07T16:09:24.884Z,43.28
2023-01-07T16:11:51.331Z,43.72
2023-01-07T16:14:19.914Z,43.76
2023-01-07T16:16:46.353Z,43.52
2023-01-07T16:19:18.237Z,43.77
2023-01-07T16:21:54.120Z,43.85
2023-01-07T16:24:20.449Z,43.95
2023-01-07T16:26:51.885Z,43.86
2023-01-07T16:29:20.368Z,43.42
2023-01-07T16:31:47.162Z,43.86
2023-01-07T16:34:36.447Z,43.66
2023-01-07T16:37:04.555Z,43.97
2023-01-07T16:39:35.460Z,43.67
2023-01-07T16:42:23.208Z,43.95
2023-01-07T16:44:53.113Z,43.54
2023-01-07T16:47:26.947Z,43.64
2023-01-07T16:49:53.400Z,43.91
2023-01-07T16:52:22.760Z,43.81
2023-01-07T16:54:51.878Z,43.56
2023-01-07T16:57:21.237Z,43.83
2023-01-07T16:59:53.792Z,43.98
2023-01-07T17:02:41.892Z,43.64
2023-01-07T17:05:11.330Z,43.76
2023-01-07T17:07:38.477Z,43.70
2023-01-07T17:10:05.415Z,43.81
2023-01-07T17:12:39.075Z,43.73
2023-01-07T17:15:27.919Z,43.71
2023-01-07T17:18:19.659Z,43.64
2023-01-07T17:20:51.870Z,44.03
2023-01-07T17:23:27.674Z,43.29
2023-01-07T17:26:03.266Z,43.50
2023-01-07T17:28:31.364Z,43.72
2023-01-07T17:30:57.647Z,43.81
2023-01-07T17:33:25.163Z,43.54
2023-01-07T17:35:52.157Z,43.69
2023-01-07T17:38:19.022Z,43.69
2023-01-07T17:40:45.703Z,43.72
2023-01-07T17:43:35.748Z,43.51
2023-01-07T17:46:06.485Z,43.80
2023-01-07T17:48:34.810Z,43.88
2023-01-07T17:51:04.599Z,43.71
2023-01-07T17:53:36.810Z,43.66
2023-01-07T17:56:07.681Z,43.83
2023-01-07T17:58:35.204Z,43.68
2023-01-07T18:01:02.768Z,43.98
2023-01-07T18:03:29.598Z,43.96
2023-01-07T18:05:56.390Z,43.94
2023-01-07T18:08:22.824Z,43.97
2023-01-07T18:11:09.519Z,43.72
2023-01-07T18:13:36.001Z,43.73
2023-01-07T18:16:02.627Z,43.78
2023-01-07T18:18:30.371Z,43.47
2023-01-07T18:20:57.774Z,43.85
2023-01-07T18:23:27.327Z,43.71
2023-01-07T18:25:55.860Z,43.71
2023-01-07T18:28:22.355Z,43.46
2023-01-07T18:30:49.344Z,43.84
2023-01-07T18:33:15.827Z,43.74
2023-01-07T18:35:42.210Z,43.55
2023-01-07T18:38:15.725Z,43.61
2023-01-07T18:40:42.808Z,43.52
2023-01-07T18:43:13.278Z,43.91
2023-01-07T18:45:40.414Z,43.41
2023-01-07T18:48:07.097Z,43.48
2023-01-07T18:50:33.594Z,43.68
2023-01-07T18:53:00.038Z,43.80
2023-01-07T18:55:29.636Z,43.79
2023-01-07T18:57:56.379Z,43.91
2023-01-07T19:00:23.144Z,43.75
2023-01-07T19:02:49.711Z,43.62
2023-01-07T19:05:16.317Z,43.81
2023-01-07T19:07:45.527Z,43.34
2023-01-07T19:10:12.175Z,43.68
2023-01-07T19:12:38.823Z,43.71
2023-01-07T19:15:05.344Z,43.51
2023-01-07T19:17:31.719Z,43.30
2023-01-07T19:19:57.961Z,43.71
2023-01-07T19:22:24.454Z,43.70
2023-01-07T19:24:51.081Z,43.40
2023-01-07T19:27:18.812Z,43.87
2023-01-07T19:29:45.043Z,43.87
2023-01-07T19:32:12.696Z,43.76
2023-01-07T19:34:38.973Z,43.87
2023-01-07T19:37:06.984Z,43.81
2023-01-07T19:39:33.686Z,43.36
2023-01-07T19:42:00.637Z,43.14
2023-01-07T19:44:26.916Z,43.65
2023-01-07T19:46:53.289Z,43.24
2023-01-07T19:49:19.700Z,43.33
2023-01-07T19:51:46.009Z,43.31
2023-01-07T19:54:16.772Z,43.08
2023-01-07T19:56:43.787Z,43.52
2023-01-07T19:59:10.758Z,43.73
2023-01-07T20:01:39.026Z,43.23
2023-01-07T20:04:06.851Z,43.10
2023-01-07T20:06:35.536Z,43.10
2023-01-07T20:09:07.868Z,43.27
2023-01-07T20:11:34.340Z,43.00
2023-01-07T20:14:00.633Z,43.34
2023-01-07T20:16:27.737Z,43.51
2023-01-07T20:18:54.971Z,43.03
2023-01-07T20:21:23.210Z,43.25
2023-01-07T20:23:49.823Z,43.27
2023-01-07T20:26:18.144Z,43.18
2023-01-07T20:28:45.881Z,42.73
2023-01-07T20:31:16.439Z,43.04
2023-01-07T20:33:45.584Z,43.25
2023-01-07T20:36:13.274Z,42.84
2023-01-07T20:38:39.753Z,42.90
2023-01-07T20:41:06.733Z,43.09
2023-01-07T20:43:33.859Z,43.19
2023-01-07T20:46:01.118Z,43.02
2023-01-07T20:48:27.965Z,43.18
2023-01-07T20:50:54.543Z,43.10
2023-01-07T20:53:21.255Z,42.74
2023-01-07T20:55:49.278Z,42.91
2023-01-07T20:58:15.581Z,42.83
2023-01-07T21:00:42.013Z,42.90
2023-01-07T21:03:08.407Z,43.02
2023-01-07T21:05:37.036Z,43.17
2023-01-07T21:08:03.530Z,42.92
2023-01-07T21:10:29.998Z,43.14
2023-01-07T21:12:56.392Z,42.74
2023-01-07T21:15:23.297Z,43.07
2023-01-07T21:17:52.902Z,42.91
2023-01-07T21:20:19.465Z,42.71
2023-01-07T21:22:47.680Z,42.78
2023-01-07T21:25:15.434Z,42.80
2023-01-07T21:27:43.612Z,42.88
2023-01-07T21:30:14.362Z,42.53
2023-01-07T21:32:41.500Z,42.44
2023-01-07T21:35:12.205Z,42.97
2023-01-07T21:37:38.933Z,42.73
2023-01-07T21:40:06.165Z,42.86
2023-01-07T21:42:32.748Z,42.93
2023-01-07T21:44:59.491Z,42.66
2023-01-07T21:47:25.732Z,42.88
2023-01-07T21:49:53.010Z,42.92
2023-01-07T21:52:19.456Z,42.67
2023-01-07T21:54:45.714Z,42.91
2023-01-07T21:57:12.220Z,42.63
2023-01-07T21:59:39.661Z,43.15
2023-01-07T22:02:08.332Z,43.05
2023-01-07T22:04:34.879Z,43.20
2023-01-07T22:07:01.175Z,42.84
2023-01-07T22:09:27.860Z,43.04
2023-01-07T22:11:56.515Z,43.14
2023-01-07T22:14:24.489Z,43.13
2023-01-07T22:16:51.008Z,43.28
2023-01-07T22:19:17.482Z,43.13
2023-01-07T22:21:43.742Z,43.09
2023-01-07T22:24:10.163Z,43.12
2023-01-07T22:26:36.445Z,43.06
2023-01-07T22:29:06.324Z,43.30
2023-01-07T22:31:38.429Z,43.51
2023-01-07T22:34:06.151Z,43.58
2023-01-07T22:36:35.217Z,43.20
2023-01-07T22:39:09.779Z,43.29
2023-01-07T22:41:37.809Z,43.58
2023-01-07T22:44:08.853Z,43.43
2023-01-07T22:46:37.569Z,43.30
2023-01-07T22:49:04.109Z,43.16
2023-01-07T22:51:34.775Z,43.16
2023-01-07T22:54:01.830Z,43.21
2023-01-07T22:56:28.214Z,43.23
2023-01-07T22:58:54.512Z,43.24
2023-01-07T23:01:20.867Z,43.37
2023-01-07T23:03:47.271Z,43.66
2023-01-07T23:06:15.531Z,43.49
2023-01-07T23:08:41.865Z,43.59
2023-01-07T23:11:08.452Z,43.39
2023-01-07T23:13:34.957Z,43.37
2023-01-07T23:16:02.273Z,43.37
2023-01-07T23:18:29.089Z,43.32
2023-01-07T23:20:58.295Z,43.39
2023-01-07T23:23:24.640Z,43.18
2023-01-07T23:25:50.947Z,43.11
2023-01-07T23:28:18.225Z,43.74
2023-01-07T23:30:44.645Z,43.35
2023-01-07T23:33:11.519Z,43.29
2023-01-07T23:35:38.821Z,43.46
2023-01-07T23:38:05.404Z,43.48
2023-01-07T23:40:31.944Z,43.32
2023-01-07T23:42:58.593Z,43.27
2023-01-07T23:45:25.057Z,43.76
2023-01-07T23:47:51.478Z,43.79
2023-01-07T23:50:17.839Z,43.38
2023-01-07T23:52:44.274Z,43.25
2023-01-07T23:55:10.613Z,43.43
2023-01-07T23:57:36.829Z,43.32
